createdAt,value
2023-05-14T00:02:04.502Z,16.01
2023-05-14T00:04:32.240Z,15.97
2023-05-14T00:06:59.804Z,15.91
2023-05-14T00:09:27.312Z,15.87
2023-05-14T00:11:54.795Z,15.85
2023-05-14T00:14:22.447Z,15.80
2023-05-14T00:16:50.628Z,15.79
2023-05-14T00:19:18.220Z,15.75
2023-05-14T00:21:47.614Z,15.74
2023-05-14T00:24:15.310Z,15.74
2023-05-14T00:26:42.801Z,15.76
2023-05-14T00:29:10.567Z,15.77
2023-05-14T00:31:38.138Z,15.78
2023-05-14T00:34:05.768Z,15.78
2023-05-14T00:36:33.299Z,15.77
2023-05-14T00:39:00.852Z,15.75
2023-05-14T00:41:28.440Z,15.68
2023-05-14T00:43:55.922Z,15.66
2023-05-14T00:46:24.021Z,15.61
2023-05-14T00:48:51.750Z,15.58
2023-05-14T00:51:19.716Z,15.54
2023-05-14T00:53:48.685Z,15.50
2023-05-14T00:56:16.511Z,15.48
2023-05-14T00:58:44.200Z,15.43
2023-05-14T01:01:14.987Z,15.38
2023-05-14T01:03:43.260Z,15.38
2023-05-14T01:06:55.417Z,15.34
2023-05-14T01:09:39.258Z,15.34
2023-05-14T01:12:26.054Z,15.30
2023-05-14T01:15:19.766Z,15.23
2023-05-14T01:17:54.295Z,15.21
2023-05-14T01:20:22.520Z,15.16
2023-05-14T01:22:50.255Z,15.14
2023-05-14T01:25:18.086Z,15.14
2023-05-14T01:28:03.804Z,15.12
2023-05-14T01:30:43.851Z,15.11
2023-05-14T01:33:16.034Z,15.08
2023-05-14T01:35:44.365Z,15.08
2023-05-14T01:38:17.723Z,15.05
2023-05-14T01:40:46.870Z,15.05
2023-05-14T01:43:15.971Z,15.02
2023-05-14T01:45:44.326Z,14.98
2023-05-14T01:48:11.940Z,14.95
2023-05-14T01:50:39.511Z,14.92
2023-05-14T01:53:07.030Z,14.85
2023-05-14T01:55:34.549Z,14.81
2023-05-14T01:58:02.219Z,14.72
2023-05-14T02:00:29.733Z,14.64
2023-05-14T02:02:58.532Z,14.60
2023-05-14T02:05:26.111Z,14.60
2023-05-14T02:07:55.093Z,14.53
2023-05-14T02:10:22.837Z,14.51
2023-05-14T02:12:50.749Z,14.48
2023-05-14T02:15:18.422Z,14.45
2023-05-14T02:17:46.026Z,14.41
2023-05-14T02:20:13.728Z,14.35
2023-05-14T02:22:45.466Z,14.38
2023-05-14T02:25:13.120Z,14.35
2023-05-14T02:27:40.658Z,14.37
2023-05-14T02:30:09.208Z,14.36
2023-05-14T02:32:37.953Z,14.37
2023-05-14T02:35:06.346Z,14.37
2023-05-14T02:37:34.768Z,14.36
2023-05-14T02:40:02.309Z,14.34
2023-05-14T02:42:30.040Z,14.30
2023-05-14T02:44:57.567Z,14.28
2023-05-14T02:47:25.132Z,14.24
2023-05-14T02:49:52.702Z,14.18
2023-05-14T02:52:21.576Z,14.17
2023-05-14T02:54:49.099Z,14.21
2023-05-14T02:57:16.678Z,14.26
2023-05-14T02:59:44.181Z,14.31
2023-05-14T03:02:12.092Z,14.35
2023-05-14T03:04:40.333Z,14.40
2023-05-14T03:07:07.840Z,14.43
2023-05-14T03:09:37.386Z,14.45
2023-05-14T03:12:07.392Z,14.47
2023-05-14T03:14:34.906Z,14.48
2023-05-14T03:17:03.548Z,14.48
2023-05-14T03:19:31.180Z,14.47
2023-05-14T03:21:58.778Z,14.44
2023-05-14T03:24:26.246Z,14.44
2023-05-14T03:26:53.942Z,14.41
2023-05-14T03:29:21.416Z,14.43
2023-05-14T03:31:49.912Z,14.37
2023-05-14T03:34:17.497Z,14.32
2023-05-14T03:36:45.028Z,14.29
2023-05-14T03:39:15.356Z,14.31
2023-05-14T03:41:42.878Z,14.32
2023-05-14T03:44:10.896Z,14.32
2023-05-14T03:46:38.427Z,14.32
2023-05-14T03:49:07.939Z,14.33
2023-05-14T03:51:35.754Z,14.33
2023-05-14T03:54:06.367Z,14.31
2023-05-14T03:56:33.869Z,14.31
2023-05-14T03:59:01.382Z,14.34
2023-05-14T04:01:28.926Z,14.37
2023-05-14T04:03:58.822Z,14.37
2023-05-14T04:06:26.406Z,14.38
2023-05-14T04:08:53.909Z,14.38
2023-05-14T04:11:21.516Z,14.38
2023-05-14T04:13:50.186Z,14.33
2023-05-14T04:16:18.989Z,14.31
2023-05-14T04:18:46.587Z,14.32
2023-05-14T04:21:14.226Z,14.32
2023-05-14T04:23:42.062Z,14.33
2023-05-14T04:26:09.565Z,14.36
2023-05-14T04:28:37.112Z,14.40
2023-05-14T04:31:04.707Z,14.41
2023-05-14T04:33:32.223Z,14.45
2023-05-14T04:35:59.772Z,14.45
2023-05-14T04:38:28.059Z,14.47
2023-05-14T04:40:55.584Z,14.51
2023-05-14T04:43:23.074Z,14.43
2023-05-14T04:45:52.344Z,14.42
2023-05-14T04:48:19.828Z,14.44
2023-05-14T04:50:47.388Z,14.42
2023-05-14T04:53:14.867Z,14.45
2023-05-14T04:55:42.400Z,14.47
2023-05-14T04:58:09.882Z,14.49
2023-05-14T05:00:37.468Z,14.52
2023-05-14T05:03:04.997Z,14.52
2023-05-14T05:05:32.534Z,14.56
2023-05-14T05:08:00.059Z,14.57
2023-05-14T05:10:27.590Z,14.61
2023-05-14T05:12:55.191Z,14.63
2023-05-14T05:15:23.686Z,14.66
2023-05-14T05:17:52.847Z,14.67
2023-05-14T05:20:20.534Z,14.61
2023-05-14T05:22:48.142Z,14.62
2023-05-14T05:25:15.682Z,14.55
2023-05-14T05:27:43.201Z,14.59
2023-05-14T05:30:11.435Z,14.64
2023-05-14T05:32:39.083Z,14.62
2023-05-14T05:35:07.063Z,14.62
2023-05-14T05:37:34.546Z,14.64
2023-05-14T05:40:02.038Z,14.69
2023-05-14T05:42:29.686Z,14.74
2023-05-14T05:44:57.244Z,14.74
2023-05-14T05:47:24.797Z,14.72
2023-05-14T05:49:53.783Z,14.71
2023-05-14T05:52:21.350Z,14.74
2023-05-14T05:54:48.835Z,14.83
2023-05-14T05:57:16.364Z,14.89
2023-05-14T05:59:43.890Z,14.94
2023-05-14T06:02:11.484Z,14.96
2023-05-14T06:04:38.981Z,14.91
2023-05-14T06:07:06.480Z,14.93
2023-05-14T06:09:33.993Z,14.88
2023-05-14T06:12:01.530Z,14.82
2023-05-14T06:14:29.134Z,14.70
2023-05-14T06:16:56.748Z,14.60
2023-05-14T06:19:24.575Z,14.50
2023-05-14T06:21:52.069Z,14.47
2023-05-14T06:24:20.340Z,14.47
2023-05-14T06:26:49.173Z,14.51
2023-05-14T06:29:16.729Z,14.53
2023-05-14T06:31:44.282Z,14.57
2023-05-14T06:34:11.860Z,14.67
2023-05-14T06:36:39.407Z,14.72
2023-05-14T06:39:06.911Z,14.77
2023-05-14T06:41:35.380Z,14.80
2023-05-14T06:44:03.594Z,14.88
2023-05-14T06:46:31.107Z,14.93
2023-05-14T06:48:59.647Z,15.01
2023-05-14T06:51:27.275Z,15.07
2023-05-14T06:53:55.772Z,14.99
2023-05-14T06:56:23.413Z,14.99
2023-05-14T06:58:51.226Z,15.06
2023-05-14T07:01:18.760Z,15.14
2023-05-14T07:03:46.320Z,15.26
2023-05-14T07:06:14.040Z,15.34
2023-05-14T07:08:41.830Z,15.41
2023-05-14T07:11:09.331Z,15.40
2023-05-14T07:13:36.828Z,15.44
2023-05-14T07:16:04.907Z,15.50
2023-05-14T07:18:32.468Z,15.53
2023-05-14T07:20:59.989Z,15.54
2023-05-14T07:23:27.540Z,15.58
2023-05-14T07:25:55.143Z,15.61
2023-05-14T07:28:22.646Z,15.68
2023-05-14T07:30:50.137Z,15.75
2023-05-14T07:33:17.644Z,15.79
2023-05-14T07:35:45.182Z,15.87
2023-05-14T07:38:12.712Z,15.93
2023-05-14T07:40:40.218Z,16.02
2023-05-14T07:43:07.799Z,16.09
2023-05-14T07:45:37.853Z,16.16
2023-05-14T07:48:06.056Z,16.21
2023-05-14T07:50:33.739Z,16.29
2023-05-14T07:53:01.212Z,16.30
2023-05-14T07:55:28.701Z,16.44
2023-05-14T07:57:56.219Z,16.58
2023-05-14T08:00:23.867Z,16.67
2023-05-14T08:02:51.860Z,16.78
2023-05-14T08:05:19.814Z,16.87
2023-05-14T08:07:47.439Z,16.94
2023-05-14T08:10:15.129Z,16.99
2023-05-14T08:12:42.850Z,16.99
2023-05-14T08:15:10.946Z,17.00
2023-05-14T08:17:38.516Z,17.06
2023-05-14T08:20:07.433Z,17.14
2023-05-14T08:22:34.966Z,17.21
2023-05-14T08:25:03.783Z,17.26
2023-05-14T08:27:31.247Z,17.25
2023-05-14T08:29:58.797Z,17.30
2023-05-14T08:32:26.332Z,17.43
2023-05-14T08:34:53.836Z,17.54
2023-05-14T08:37:21.387Z,17.67
2023-05-14T08:39:49.326Z,17.76
2023-05-14T08:42:21.826Z,17.77
2023-05-14T08:44:53.370Z,17.85
2023-05-14T08:47:23.842Z,17.89
2023-05-14T08:49:59.570Z,17.79
2023-05-14T08:52:27.255Z,17.73
2023-05-14T08:54:57.364Z,17.66
2023-05-14T08:57:26.443Z,17.62
2023-05-14T08:59:54.205Z,17.55
2023-05-14T09:02:27.328Z,17.63
2023-05-14T09:04:58.805Z,17.82
2023-05-14T09:07:27.304Z,17.91
2023-05-14T09:09:55.575Z,18.00
2023-05-14T09:12:23.138Z,17.98
2023-05-14T09:14:51.305Z,18.01
2023-05-14T09:17:19.615Z,18.04
2023-05-14T09:19:49.198Z,18.03
2023-05-14T09:22:19.540Z,18.03
2023-05-14T09:25:01.319Z,18.06
2023-05-14T09:27:31.678Z,18.17
2023-05-14T09:30:07.345Z,18.32
2023-05-14T09:32:40.026Z,18.56
2023-05-14T09:35:18.251Z,18.74
2023-05-14T09:37:54.322Z,18.88
2023-05-14T09:40:24.372Z,19.04
2023-05-14T09:42:52.233Z,19.24
2023-05-14T09:45:19.804Z,19.35
2023-05-14T09:47:47.607Z,19.37
2023-05-14T09:50:15.266Z,19.36
2023-05-14T09:52:42.782Z,19.48
2023-05-14T09:55:10.555Z,19.71
2023-05-14T09:57:38.295Z,19.83
2023-05-14T10:00:08.715Z,19.93
2023-05-14T10:02:38.517Z,20.00
2023-05-14T10:05:07.683Z,20.13
2023-05-14T10:07:47.832Z,20.08
2023-05-14T10:10:23.950Z,20.20
2023-05-14T10:13:04.179Z,20.32
2023-05-14T10:15:40.617Z,20.43
2023-05-14T10:18:12.909Z,20.50
2023-05-14T10:20:41.333Z,20.42
2023-05-14T10:23:09.432Z,20.44
2023-05-14T10:25:37.479Z,20.53
2023-05-14T10:28:05.974Z,20.62
2023-05-14T10:30:33.590Z,20.72
2023-05-14T10:33:15.469Z,20.71
2023-05-14T10:36:02.839Z,20.70
2023-05-14T10:42:32.489Z,20.56
2023-05-14T10:45:02.006Z,20.63
2023-05-14T10:47:30.963Z,20.70
2023-05-14T10:50:01.873Z,20.74
2023-05-14T10:52:29.988Z,20.81
2023-05-14T10:55:02.853Z,20.93
2023-05-14T10:57:32.086Z,21.18
2023-05-14T11:00:02.802Z,21.25
2023-05-14T11:02:33.220Z,21.20
2023-05-14T11:05:08.024Z,21.28
2023-05-14T11:07:49.929Z,21.33
2023-05-14T11:10:22.119Z,21.39
2023-05-14T11:12:51.384Z,21.49
2023-05-14T11:15:22.037Z,21.50
2023-05-14T11:17:51.141Z,21.48
2023-05-14T11:20:20.180Z,21.49
2023-05-14T11:22:51.482Z,21.59
2023-05-14T11:25:19.370Z,21.63
2023-05-14T11:27:47.943Z,21.65
2023-05-14T11:30:18.527Z,21.64
2023-05-14T11:32:48.046Z,21.71
2023-05-14T11:35:17.057Z,21.77
2023-05-14T11:37:52.200Z,21.88
2023-05-14T11:40:20.106Z,21.97
2023-05-14T11:42:50.714Z,22.11
2023-05-14T11:45:26.624Z,22.26
2023-05-14T11:47:57.176Z,22.32
2023-05-14T11:50:24.966Z,22.39
2023-05-14T11:52:57.138Z,22.41
2023-05-14T11:55:24.840Z,22.48
2023-05-14T11:57:52.422Z,22.54
2023-05-14T12:00:22.096Z,22.53
2023-05-14T12:02:50.160Z,22.59
2023-05-14T12:05:19.529Z,22.63
2023-05-14T12:07:47.977Z,22.32
2023-05-14T12:10:15.670Z,22.11
2023-05-14T12:12:47.485Z,21.91
2023-05-14T12:15:19.230Z,21.79
2023-05-14T12:17:51.851Z,21.85
2023-05-14T12:20:19.940Z,21.96
2023-05-14T12:22:47.527Z,21.98
2023-05-14T12:25:15.042Z,21.92
2023-05-14T12:27:44.863Z,21.92
2023-05-14T12:30:21.255Z,21.88
2023-05-14T12:32:52.472Z,21.59
2023-05-14T12:35:22.444Z,21.65
2023-05-14T12:37:50.365Z,21.67
2023-05-14T12:40:17.977Z,21.78
2023-05-14T12:42:45.656Z,21.94
2023-05-14T12:45:13.151Z,22.00
2023-05-14T12:47:40.844Z,21.97
2023-05-14T12:50:08.946Z,21.95
2023-05-14T12:52:39.312Z,21.98
2023-05-14T12:55:09.349Z,21.94
2023-05-14T12:57:38.922Z,21.94
2023-05-14T13:00:13.001Z,21.82
2023-05-14T13:02:43.458Z,21.77
2023-05-14T13:05:12.445Z,21.93
2023-05-14T13:07:40.675Z,21.99
2023-05-14T13:10:09.110Z,22.03
2023-05-14T13:12:36.662Z,22.13
2023-05-14T13:15:05.307Z,22.15
2023-05-14T13:17:33.061Z,22.32
2023-05-14T13:20:00.626Z,22.27
2023-05-14T13:22:28.172Z,22.14
2023-05-14T13:24:55.760Z,21.95
2023-05-14T13:27:23.290Z,21.89
2023-05-14T13:29:50.831Z,21.89
2023-05-14T13:32:18.416Z,21.83
2023-05-14T13:34:46.308Z,21.82
2023-05-14T13:37:14.162Z,21.85
2023-05-14T13:39:41.779Z,21.74
2023-05-14T13:42:09.275Z,21.67
2023-05-14T13:44:36.990Z,21.63
2023-05-14T13:47:04.901Z,21.63
2023-05-14T13:49:32.542Z,21.89
2023-05-14T13:52:00.325Z,22.31
2023-05-14T13:54:27.946Z,22.55
2023-05-14T13:56:56.093Z,22.85
2023-05-14T13:59:23.971Z,23.18
2023-05-14T14:01:51.966Z,23.20
2023-05-14T14:04:20.087Z,22.98
2023-05-14T14:06:47.614Z,22.83
2023-05-14T14:09:15.388Z,23.07
2023-05-14T14:11:42.990Z,23.29
2023-05-14T14:14:10.593Z,23.31
2023-05-14T14:16:38.335Z,23.13
2023-05-14T14:19:06.810Z,22.85
2023-05-14T14:21:35.251Z,22.74
2023-05-14T14:24:02.930Z,22.95
2023-05-14T14:26:30.477Z,22.97
2023-05-14T14:28:58.384Z,22.90
2023-05-14T14:31:25.946Z,22.77
2023-05-14T14:33:53.545Z,22.80
2023-05-14T14:36:21.091Z,23.12
2023-05-14T14:38:48.589Z,23.36
2023-05-14T14:41:16.520Z,23.76
2023-05-14T14:43:44.164Z,24.18
2023-05-14T14:46:11.722Z,24.54
2023-05-14T14:48:39.721Z,24.43
2023-05-14T14:51:08.294Z,24.13
2023-05-14T14:53:37.228Z,24.08
2023-05-14T14:56:06.562Z,24.36
2023-05-14T14:58:34.122Z,24.44
2023-05-14T15:01:01.698Z,24.32
2023-05-14T15:03:29.512Z,24.12
2023-05-14T15:05:57.281Z,23.91
2023-05-14T15:08:27.465Z,24.08
2023-05-14T15:10:56.668Z,24.35
2023-05-14T15:13:24.718Z,24.40
2023-05-14T15:15:52.860Z,24.51
2023-05-14T15:18:20.618Z,24.52
2023-05-14T15:20:48.510Z,24.57
2023-05-14T15:23:16.276Z,24.38
2023-05-14T15:25:44.369Z,24.28
2023-05-14T15:28:11.992Z,24.20
2023-05-14T15:30:39.570Z,24.26
2023-05-14T15:33:10.873Z,24.43
2023-05-14T15:35:39.129Z,24.38
2023-05-14T15:38:07.157Z,24.49
2023-05-14T15:40:35.148Z,24.69
2023-05-14T15:43:03.024Z,24.77
2023-05-14T15:45:31.127Z,24.79
2023-05-14T15:47:58.659Z,24.85
2023-05-14T15:50:27.244Z,24.81
2023-05-14T15:52:54.874Z,24.66
2023-05-14T15:55:22.493Z,24.74
2023-05-14T15:57:49.993Z,24.65
2023-05-14T16:00:17.901Z,24.54
2023-05-14T16:02:45.719Z,24.42
2023-05-14T16:05:14.752Z,24.36
2023-05-14T16:07:42.963Z,24.43
2023-05-14T16:10:11.099Z,24.43
2023-05-14T16:12:38.605Z,24.27
2023-05-14T16:15:07.929Z,24.22
2023-05-14T16:17:35.729Z,24.14
2023-05-14T16:20:04.851Z,23.95
2023-05-14T16:22:34.476Z,23.85
2023-05-14T16:25:03.546Z,23.64
2023-05-14T16:27:31.619Z,23.50
2023-05-14T16:29:59.216Z,23.38
2023-05-14T16:32:27.565Z,23.20
2023-05-14T16:34:56.284Z,23.08
2023-05-14T16:37:24.134Z,22.96
2023-05-14T16:39:51.692Z,22.84
2023-05-14T16:42:19.386Z,22.68
2023-05-14T16:44:46.868Z,22.57
2023-05-14T16:47:14.368Z,22.47
2023-05-14T16:49:41.859Z,22.39
2023-05-14T16:52:09.349Z,22.30
2023-05-14T16:54:36.958Z,22.23
2023-05-14T16:57:05.890Z,22.14
2023-05-14T16:59:33.573Z,22.09
2023-05-14T17:02:01.290Z,22.02
2023-05-14T17:04:29.226Z,22.07
2023-05-14T17:06:57.331Z,22.03
2023-05-14T17:09:24.844Z,22.08
2023-05-14T17:11:52.468Z,22.05
2023-05-14T17:14:19.943Z,22.03
2023-05-14T17:16:47.505Z,22.01
2023-05-14T17:19:15.018Z,22.06
2023-05-14T17:21:42.563Z,22.12
2023-05-14T17:24:10.057Z,22.05
2023-05-14T17:26:37.752Z,21.98
2023-05-14T17:29:05.276Z,21.91
2023-05-14T17:31:32.823Z,21.85
2023-05-14T17:34:00.671Z,21.79
2023-05-14T17:36:28.607Z,21.73
2023-05-14T17:38:56.184Z,21.69
2023-05-14T17:41:23.871Z,21.63
2023-05-14T17:43:52.435Z,21.55
2023-05-14T17:46:20.469Z,21.45
2023-05-14T17:48:48.062Z,21.38
2023-05-14T17:51:15.622Z,21.32
2023-05-14T17:53:43.179Z,21.23
2023-05-14T17:56:10.786Z,21.16
2023-05-14T17:58:38.467Z,21.09
2023-05-14T18:01:05.972Z,21.01
2023-05-14T18:03:33.763Z,20.92
2023-05-14T18:06:01.411Z,20.80
2023-05-14T18:08:28.892Z,20.71
2023-05-14T18:10:56.456Z,20.62
2023-05-14T18:13:23.971Z,20.51
2023-05-14T18:15:54.093Z,20.44
2023-05-14T18:18:23.526Z,20.36
2023-05-14T18:20:51.989Z,20.31
2023-05-14T18:23:19.510Z,20.23
2023-05-14T18:25:48.123Z,20.19
2023-05-14T18:28:15.904Z,20.14
2023-05-14T18:30:43.559Z,20.13
2023-05-14T18:33:11.312Z,20.08
2023-05-14T18:35:38.961Z,20.03
2023-05-14T18:38:08.045Z,19.99
2023-05-14T18:40:35.604Z,19.97
2023-05-14T18:43:03.112Z,19.94
2023-05-14T18:45:31.237Z,19.89
2023-05-14T18:47:58.859Z,19.85
2023-05-14T18:50:26.381Z,19.81
2023-05-14T18:52:53.896Z,19.75
2023-05-14T18:55:21.420Z,19.70
2023-05-14T18:57:49.105Z,19.64
2023-05-14T19:00:16.956Z,19.51
2023-05-14T19:02:44.664Z,19.44
2023-05-14T19:05:12.316Z,19.38
2023-05-14T19:07:40.872Z,19.30
2023-05-14T19:10:09.681Z,19.21
2023-05-14T19:12:37.276Z,19.16
2023-05-14T19:15:05.606Z,19.11
2023-05-14T19:17:33.492Z,19.01
2023-05-14T19:20:01.004Z,18.92
2023-05-14T19:22:28.520Z,18.82
2023-05-14T19:24:56.022Z,18.74
2023-05-14T19:27:24.129Z,18.65
2023-05-14T19:29:51.680Z,18.56
2023-05-14T19:32:19.165Z,18.48
2023-05-14T19:34:46.923Z,18.36
2023-05-14T19:37:14.518Z,18.29
2023-05-14T19:39:42.045Z,18.20
2023-05-14T19:42:09.539Z,18.13
2023-05-14T19:44:37.202Z,18.07
2023-05-14T19:47:05.250Z,18.05
2023-05-14T19:49:32.801Z,18.02
2023-05-14T19:52:00.325Z,17.97
2023-05-14T19:54:27.788Z,17.93
2023-05-14T19:56:55.322Z,17.85
2023-05-14T19:59:23.111Z,17.77
2023-05-14T20:01:50.618Z,17.74
2023-05-14T20:04:19.689Z,17.70
2023-05-14T20:06:47.389Z,17.68
2023-05-14T20:09:15.372Z,17.62
2023-05-14T20:11:42.930Z,17.54
2023-05-14T20:14:10.413Z,17.44
2023-05-14T20:16:38.025Z,17.41
2023-05-14T20:19:06.438Z,17.36
2023-05-14T20:21:34.014Z,17.33
2023-05-14T20:24:01.687Z,17.32
2023-05-14T20:26:29.188Z,17.33
2023-05-14T20:28:56.702Z,17.32
2023-05-14T20:31:24.317Z,17.34
2023-05-14T20:33:51.947Z,17.32
2023-05-14T20:36:19.545Z,17.33
2023-05-14T20:38:47.688Z,17.31
2023-05-14T20:41:15.185Z,17.27
2023-05-14T20:43:42.673Z,17.23
2023-05-14T20:46:10.226Z,17.21
2023-05-14T20:48:37.808Z,17.15
2023-05-14T20:51:06.431Z,17.13
2023-05-14T20:53:34.251Z,17.11
2023-05-14T20:56:02.380Z,17.04
2023-05-14T20:58:30.033Z,16.96
2023-05-14T21:00:58.595Z,16.84
2023-05-14T21:03:26.896Z,16.86
2023-05-14T21:05:55.952Z,16.79
2023-05-14T21:08:23.465Z,16.77
2023-05-14T21:10:51.029Z,16.77
2023-05-14T21:13:18.543Z,16.74
2023-05-14T21:15:46.228Z,16.70
2023-05-14T21:18:13.759Z,16.69
2023-05-14T21:20:41.260Z,16.59
2023-05-14T21:23:08.744Z,16.57
2023-05-14T21:25:36.318Z,16.58
2023-05-14T21:28:03.883Z,16.57
2023-05-14T21:30:31.372Z,16.54
2023-05-14T21:32:58.926Z,16.53
2023-05-14T21:35:26.666Z,16.53
2023-05-14T21:37:54.456Z,16.52
2023-05-14T21:40:22.031Z,16.50
2023-05-14T21:42:50.118Z,16.49
2023-05-14T21:45:17.608Z,16.47
2023-05-14T21:47:45.280Z,16.47
2023-05-14T21:50:13.720Z,16.46
2023-05-14T21:52:41.469Z,16.45
2023-05-14T21:55:09.397Z,16.45
2023-05-14T21:57:37.090Z,16.50
2023-05-14T22:00:08.364Z,16.52
2023-05-14T22:02:35.920Z,16.54
2023-05-14T22:05:03.707Z,16.52
2023-05-14T22:07:32.854Z,16.51
2023-05-14T22:10:00.345Z,16.51
2023-05-14T22:12:27.988Z,16.52
2023-05-14T22:14:55.460Z,16.50
2023-05-14T22:17:23.203Z,16.48
2023-05-14T22:19:50.801Z,16.48
2023-05-14T22:22:18.345Z,16.42
2023-05-14T22:24:45.880Z,16.27
2023-05-14T22:27:13.486Z,16.26
2023-05-14T22:29:41.006Z,16.34
2023-05-14T22:32:10.104Z,16.41
2023-05-14T22:34:37.731Z,16.50
2023-05-14T22:37:05.858Z,16.52
2023-05-14T22:39:33.456Z,16.54
2023-05-14T22:42:00.995Z,16.60
2023-05-14T22:44:29.889Z,16.64
2023-05-14T22:46:57.849Z,16.67
2023-05-14T22:49:25.560Z,16.70
2023-05-14T22:51:54.201Z,16.71
2023-05-14T22:54:21.739Z,16.71
2023-05-14T22:56:49.572Z,16.69
2023-05-14T22:59:17.369Z,16.66
2023-05-14T23:01:44.996Z,16.64
2023-05-14T23:04:12.700Z,16.61
2023-05-14T23:06:40.849Z,16.60
2023-05-14T23:09:08.497Z,16.57
2023-05-14T23:11:35.981Z,16.56
2023-05-14T23:14:03.454Z,16.56
2023-05-14T23:16:31.811Z,16.54
2023-05-14T23:18:59.435Z,16.52
2023-05-14T23:21:27.088Z,16.54
2023-05-14T23:23:54.574Z,16.52
2023-05-14T23:26:22.082Z,16.46
2023-05-14T23:28:49.608Z,16.38
2023-05-14T23:31:17.125Z,16.33
2023-05-14T23:33:44.726Z,16.30
2023-05-14T23:36:12.425Z,16.26
2023-05-14T23:38:40.717Z,16.25
2023-05-14T23:41:08.312Z,16.22
2023-05-14T23:43:35.919Z,16.20
2023-05-14T23:46:03.924Z,16.19
2023-05-14T23:48:31.549Z,16.10
2023-05-14T23:50:59.023Z,16.05
2023-05-14T23:53:26.531Z,16.01
2023-05-14T23:55:54.033Z,15.96
2023-05-14T23:58:21.639Z,15.90
